createdAt,value
2022-10-25T00:00:43.998Z,4.60
2022-10-25T00:03:13.016Z,3.60
2022-10-25T00:05:41.346Z,5.13
2022-10-25T00:08:09.450Z,4.93
2022-10-25T00:10:37.682Z,5.40
2022-10-25T00:13:06.223Z,4.30
2022-10-25T00:15:33.788Z,4.30
2022-10-25T00:18:01.238Z,4.53
2022-10-25T00:20:28.843Z,4.80
2022-10-25T00:30:21.685Z,4.37
2022-10-25T00:32:52.915Z,5.10
2022-10-25T00:40:25.231Z,4.73
2022-10-25T00:43:53.575Z,3.83
2022-10-25T00:46:58.647Z,5.60
2022-10-25T00:49:26.233Z,4.80
2022-10-25T00:52:01.150Z,5.87
2022-10-25T00:54:33.786Z,5.67
2022-10-25T00:57:11.657Z,5.30
2022-10-25T00:59:39.771Z,5.17
2022-10-25T01:02:07.587Z,5.40
2022-10-25T01:04:35.343Z,5.83
2022-10-25T01:07:03.941Z,5.63
2022-10-25T01:09:34.572Z,6.40
2022-10-25T01:12:39.229Z,6.10
2022-10-25T01:15:07.358Z,5.87
2022-10-25T01:18:02.247Z,5.67
2022-10-25T01:20:51.325Z,5.70
2022-10-25T01:23:28.288Z,5.17
2022-10-25T01:26:10.800Z,6.15
2022-10-25T01:29:18.468Z,5.43
2022-10-25T01:31:50.838Z,5.37
2022-10-25T01:34:36.050Z,5.80
2022-10-25T01:37:21.815Z,5.13
2022-10-25T01:40:03.174Z,4.80
2022-10-25T01:42:45.627Z,5.00
2022-10-25T01:45:21.476Z,4.30
2022-10-25T01:48:30.998Z,4.77
2022-10-25T01:51:06.111Z,3.93
2022-10-25T01:53:33.678Z,4.70
2022-10-25T01:56:04.324Z,4.23
2022-10-25T01:59:00.528Z,4.77
2022-10-25T02:01:46.264Z,4.37
2022-10-25T02:05:12.575Z,4.50
2022-10-25T02:07:51.426Z,3.50
2022-10-25T02:10:42.311Z,4.30
2022-10-25T02:13:47.873Z,3.97
2022-10-25T02:16:22.333Z,3.27
2022-10-25T02:18:54.116Z,3.10
2022-10-25T02:21:24.665Z,3.57
2022-10-25T02:23:54.082Z,2.70
2022-10-25T02:26:22.389Z,3.10
2022-10-25T02:28:51.024Z,3.63
2022-10-25T02:31:21.724Z,3.07
2022-10-25T02:33:49.523Z,2.80
2022-10-25T02:36:22.475Z,2.83
2022-10-25T02:38:51.913Z,2.77
2022-10-25T02:41:22.735Z,2.87
2022-10-25T02:43:50.338Z,3.40
2022-10-25T02:46:21.016Z,3.40
2022-10-25T02:48:49.571Z,3.30
2022-10-25T02:51:18.592Z,3.40
2022-10-25T02:53:46.065Z,2.73
2022-10-25T02:56:19.549Z,3.40
2022-10-25T02:58:48.652Z,3.30
2022-10-25T03:01:17.806Z,3.17
2022-10-25T03:03:46.015Z,3.27
2022-10-25T03:06:14.091Z,3.10
2022-10-25T03:08:42.968Z,3.10
2022-10-25T03:11:57.527Z,3.53
2022-10-25T03:14:28.074Z,3.67
2022-10-25T03:17:07.133Z,3.00
2022-10-25T03:19:34.547Z,2.83
2022-10-25T03:26:45.831Z,2.93
2022-10-25T03:30:17.568Z,3.80
2022-10-25T03:32:45.101Z,3.30
2022-10-25T03:35:12.633Z,3.67
2022-10-25T03:37:40.194Z,3.03
2022-10-25T03:40:08.158Z,3.20
2022-10-25T03:42:35.699Z,3.03
2022-10-25T03:45:03.846Z,3.37
2022-10-25T03:47:31.511Z,3.13
2022-10-25T03:49:58.991Z,3.10
2022-10-25T03:52:26.490Z,3.03
2022-10-25T03:54:54.014Z,3.47
2022-10-25T03:57:25.128Z,3.27
2022-10-25T03:59:53.429Z,3.27
2022-10-25T04:02:20.889Z,2.93
2022-10-25T04:04:48.420Z,3.67
2022-10-25T04:07:15.860Z,3.00
2022-10-25T04:09:43.383Z,3.73
2022-10-25T04:12:11.697Z,3.30
2022-10-25T04:14:39.242Z,3.97
2022-10-25T04:17:06.869Z,3.57
2022-10-25T04:19:34.353Z,3.17
2022-10-25T04:22:07.428Z,2.73
2022-10-25T04:24:35.032Z,2.97
2022-10-25T04:27:02.510Z,3.00
2022-10-25T04:29:30.066Z,3.20
2022-10-25T04:31:57.622Z,3.30
2022-10-25T04:34:25.160Z,2.73
2022-10-25T04:36:52.596Z,2.97
2022-10-25T04:39:20.193Z,3.67
2022-10-25T04:41:47.661Z,3.03
2022-10-25T04:48:41.665Z,2.90
2022-10-25T04:52:05.189Z,3.00
2022-10-25T04:55:37.562Z,3.53
2022-10-25T05:06:59.145Z,3.57
2022-10-25T05:21:13.544Z,2.60
2022-10-25T05:23:41.888Z,3.83
2022-10-25T05:26:15.231Z,3.17
2022-10-25T05:28:44.851Z,3.80
2022-10-25T05:31:17.992Z,3.93
2022-10-25T05:33:46.259Z,3.10
2022-10-25T05:36:14.488Z,3.67
2022-10-25T05:38:42.147Z,3.40
2022-10-25T05:41:12.108Z,4.17
2022-10-25T05:43:40.111Z,3.30
2022-10-25T05:46:10.697Z,3.10
2022-10-25T05:48:38.638Z,3.00
2022-10-25T05:54:26.478Z,4.25
2022-10-25T05:56:54.034Z,3.43
2022-10-25T05:59:23.910Z,3.47
2022-10-25T06:01:51.670Z,4.53
2022-10-25T06:04:19.227Z,3.53
2022-10-25T06:06:47.689Z,3.53
2022-10-25T06:09:15.198Z,3.40
2022-10-25T06:11:42.787Z,3.80
2022-10-25T06:26:26.679Z,3.93
2022-10-25T06:44:59.305Z,3.58
2022-10-25T06:53:19.426Z,3.75
2022-10-25T07:00:25.823Z,4.43
2022-10-25T07:03:00.436Z,3.80
2022-10-25T07:05:28.037Z,3.50
2022-10-25T07:07:55.930Z,3.70
2022-10-25T07:10:23.546Z,3.25
2022-10-25T07:12:51.027Z,3.50
2022-10-25T07:17:47.294Z,3.17
2022-10-25T07:20:15.059Z,2.75
2022-10-25T07:22:42.532Z,2.47
2022-10-25T07:25:10.190Z,2.42
2022-10-25T07:27:37.760Z,2.30
2022-10-25T07:30:05.603Z,2.70
2022-10-25T07:32:33.106Z,2.88
2022-10-25T07:35:00.723Z,3.10
2022-10-25T07:37:28.282Z,3.38
2022-10-25T07:39:55.795Z,2.97
2022-10-25T07:42:23.240Z,3.15
2022-10-25T07:44:50.794Z,3.00
2022-10-25T07:47:18.230Z,4.57
2022-10-25T07:49:45.667Z,3.53
2022-10-25T07:52:14.069Z,2.42
2022-10-25T07:54:41.497Z,3.67
2022-10-25T07:57:09.960Z,2.72
2022-10-25T07:59:37.388Z,2.28
2022-10-25T08:02:04.894Z,2.85
2022-10-25T08:04:33.208Z,2.80
2022-10-25T08:07:03.288Z,2.97
2022-10-25T08:09:38.257Z,2.60
2022-10-25T08:12:06.360Z,2.90
2022-10-25T08:14:39.671Z,2.63
2022-10-25T08:17:11.629Z,2.80
2022-10-25T08:19:39.151Z,2.90
2022-10-25T08:22:06.577Z,2.17
2022-10-25T08:24:38.792Z,2.05
2022-10-25T08:27:06.584Z,2.10
2022-10-25T08:29:33.996Z,2.10
2022-10-25T08:32:03.924Z,1.88
2022-10-25T08:34:33.205Z,1.58
2022-10-25T08:37:00.851Z,4.60
2022-10-25T08:39:30.934Z,3.17
2022-10-25T08:42:00.769Z,2.47
2022-10-25T08:44:43.967Z,2.03
2022-10-25T08:47:34.087Z,2.10
2022-10-25T08:50:19.545Z,1.98
2022-10-25T08:52:53.788Z,1.77
2022-10-25T08:55:41.687Z,1.58
2022-10-25T08:58:29.768Z,1.58
2022-10-25T09:01:01.558Z,2.20
2022-10-25T09:03:29.344Z,2.40
2022-10-25T09:06:24.295Z,2.38
2022-10-25T09:09:27.037Z,2.95
2022-10-25T09:12:17.315Z,2.78
2022-10-25T09:14:59.168Z,2.78
2022-10-25T09:17:38.860Z,2.10
2022-10-25T09:20:21.822Z,2.00
2022-10-25T09:22:54.529Z,1.90
2022-10-25T09:25:30.752Z,2.10
2022-10-25T09:28:07.305Z,3.38
2022-10-25T09:30:40.775Z,4.10
2022-10-25T09:33:13.806Z,3.30
2022-10-25T09:35:45.541Z,2.58
2022-10-25T09:38:31.667Z,2.22
2022-10-25T09:41:26.264Z,2.30
2022-10-25T09:44:06.879Z,2.72
2022-10-25T09:46:43.223Z,2.20
2022-10-25T09:52:19.506Z,2.58
2022-10-25T09:54:54.522Z,2.47
2022-10-25T09:57:22.183Z,2.30
2022-10-25T09:59:51.608Z,2.38
2022-10-25T10:02:25.323Z,2.22
2022-10-25T10:04:54.038Z,2.60
2022-10-25T10:07:36.029Z,2.15
2022-10-25T10:10:10.009Z,2.60
2022-10-25T10:13:13.019Z,2.85
2022-10-25T10:15:57.072Z,6.55
2022-10-25T10:18:29.783Z,3.00
2022-10-25T10:21:28.290Z,2.80
2022-10-25T10:24:02.697Z,2.75
2022-10-25T10:26:51.670Z,2.50
2022-10-25T10:29:24.632Z,2.85
2022-10-25T10:32:05.269Z,2.60
2022-10-25T10:34:39.910Z,2.83
2022-10-25T10:37:13.498Z,2.65
2022-10-25T10:40:08.278Z,3.92
2022-10-25T10:42:42.938Z,2.63
2022-10-25T10:45:18.430Z,2.25
2022-10-25T10:47:56.756Z,2.17
2022-10-25T10:50:32.010Z,3.65
2022-10-25T10:53:22.361Z,2.60
2022-10-25T10:55:52.646Z,1.70
2022-10-25T10:58:24.731Z,1.77
2022-10-25T11:01:09.340Z,1.90
2022-10-25T11:03:45.043Z,1.80
2022-10-25T11:06:50.783Z,1.83
2022-10-25T11:09:25.595Z,2.65
2022-10-25T11:12:07.757Z,2.08
2022-10-25T11:14:35.443Z,1.90
2022-10-25T11:17:17.132Z,1.58
2022-10-25T11:19:59.644Z,1.70
2022-10-25T11:22:50.429Z,1.45
2022-10-25T11:25:26.829Z,1.50
2022-10-25T11:28:16.235Z,1.40
2022-10-25T11:30:49.766Z,1.52
2022-10-25T11:33:45.304Z,1.80
2022-10-25T11:36:35.417Z,2.00
2022-10-25T11:39:12.941Z,1.70
2022-10-25T11:41:53.576Z,1.90
2022-10-25T11:44:36.441Z,1.63
2022-10-25T11:47:18.525Z,2.50
2022-10-25T11:50:15.182Z,2.47
2022-10-25T11:53:10.267Z,2.35
2022-10-25T11:56:03.997Z,2.03
2022-10-25T11:59:23.407Z,2.03
2022-10-25T12:02:21.552Z,2.15
2022-10-25T12:04:49.105Z,2.33
2022-10-25T12:07:25.301Z,2.40
2022-10-25T12:10:26.042Z,2.75
2022-10-25T12:13:12.120Z,2.53
2022-10-25T12:15:43.539Z,2.53
2022-10-25T12:18:16.586Z,2.10
2022-10-25T12:20:47.295Z,1.85
2022-10-25T12:23:19.029Z,1.95
2022-10-25T12:26:13.803Z,1.88
2022-10-25T12:28:46.675Z,1.70
2022-10-25T12:31:29.841Z,2.08
2022-10-25T12:34:14.586Z,1.92
2022-10-25T12:36:46.069Z,2.50
2022-10-25T12:39:18.414Z,3.03
2022-10-25T12:41:53.146Z,2.30
2022-10-25T12:44:29.453Z,2.10
2022-10-25T12:47:08.872Z,2.72
2022-10-25T12:50:02.519Z,2.40
2022-10-25T12:52:59.745Z,2.30
2022-10-25T12:55:36.182Z,2.85
2022-10-25T12:58:26.324Z,2.67
2022-10-25T13:01:18.798Z,2.53
2022-10-25T13:04:08.046Z,2.63
2022-10-25T13:06:44.312Z,2.55
2022-10-25T13:09:15.548Z,2.65
2022-10-25T13:11:48.983Z,2.90
2022-10-25T13:14:27.542Z,2.70
2022-10-25T13:17:16.758Z,3.00
2022-10-25T13:20:00.798Z,3.53
2022-10-25T13:22:35.652Z,3.63
2022-10-25T13:25:12.986Z,3.40
2022-10-25T13:28:26.559Z,3.05
2022-10-25T13:31:28.940Z,3.30
2022-10-25T13:34:28.704Z,3.17
2022-10-25T13:37:01.279Z,3.13
2022-10-25T13:39:33.388Z,3.08
2022-10-25T13:42:26.341Z,3.28
2022-10-25T13:44:56.923Z,3.70
2022-10-25T13:47:46.737Z,4.87
2022-10-25T13:50:29.199Z,3.33
2022-10-25T13:53:31.331Z,3.43
2022-10-25T13:56:04.543Z,3.20
2022-10-25T13:58:48.147Z,3.90
2022-10-25T14:01:15.719Z,3.50
2022-10-25T14:03:50.199Z,2.80
2022-10-25T14:06:29.420Z,5.00
2022-10-25T14:09:09.534Z,5.00
2022-10-25T14:11:55.808Z,4.90
2022-10-25T14:14:33.569Z,5.90
2022-10-25T14:17:11.910Z,5.23
2022-10-25T14:19:47.488Z,5.20
2022-10-25T14:22:36.486Z,6.43
2022-10-25T14:25:20.854Z,6.10
2022-10-25T14:27:48.898Z,6.33
2022-10-25T14:30:27.238Z,6.03
2022-10-25T14:33:03.894Z,5.90
2022-10-25T14:35:37.237Z,6.15
2022-10-25T14:38:16.367Z,6.03
2022-10-25T14:40:59.701Z,6.00
2022-10-25T14:43:35.822Z,6.80
2022-10-25T14:46:14.328Z,6.13
2022-10-25T14:48:47.005Z,6.07
2022-10-25T14:51:25.744Z,5.73
2022-10-25T14:53:57.811Z,5.87
2022-10-25T14:56:36.598Z,5.83
2022-10-25T14:59:07.942Z,6.13
2022-10-25T15:01:36.112Z,5.60
2022-10-25T15:04:03.809Z,5.83
2022-10-25T15:06:32.704Z,6.43
2022-10-25T15:09:40.634Z,6.97
2022-10-25T15:12:04.581Z,5.97
2022-10-25T15:14:32.791Z,6.47
2022-10-25T15:17:14.987Z,6.57
2022-10-25T15:22:43.613Z,5.53
2022-10-25T15:25:23.102Z,6.67
2022-10-25T15:27:52.418Z,6.30
2022-10-25T15:30:59.211Z,4.97
2022-10-25T15:33:31.932Z,5.83
2022-10-25T15:36:01.836Z,5.30
2022-10-25T15:39:06.199Z,5.00
2022-10-25T15:41:28.176Z,4.97
2022-10-25T15:43:55.712Z,5.83
2022-10-25T15:46:33.476Z,6.00
2022-10-25T15:49:04.475Z,5.67
2022-10-25T15:51:39.280Z,5.07
2022-10-25T15:54:21.826Z,5.43
2022-10-25T15:56:50.582Z,5.13
2022-10-25T15:59:18.208Z,6.20
2022-10-25T16:01:49.140Z,6.83
2022-10-25T16:04:19.259Z,6.13
2022-10-25T16:06:48.020Z,5.47
2022-10-25T16:09:15.593Z,5.27
2022-10-25T16:11:47.811Z,6.07
2022-10-25T16:14:22.491Z,6.10
2022-10-25T16:16:50.640Z,5.73
2022-10-25T16:19:19.575Z,5.37
2022-10-25T16:21:47.893Z,5.97
2022-10-25T16:24:15.485Z,6.03
2022-10-25T16:26:45.844Z,6.03
2022-10-25T16:29:19.351Z,6.17
2022-10-25T16:31:47.167Z,6.10
2022-10-25T16:34:19.693Z,5.87
2022-10-25T16:36:48.898Z,5.37
2022-10-25T16:39:17.519Z,5.90
2022-10-25T16:41:46.327Z,5.13
2022-10-25T16:44:18.187Z,5.90
2022-10-25T16:46:46.411Z,5.40
2022-10-25T16:49:14.032Z,5.60
2022-10-25T16:51:41.975Z,5.97
2022-10-25T16:54:11.261Z,6.27
2022-10-25T16:56:39.666Z,6.13
2022-10-25T16:59:07.157Z,6.23
2022-10-25T17:01:36.004Z,5.07
2022-10-25T17:04:05.470Z,5.83
2022-10-25T17:06:41.740Z,6.47
2022-10-25T17:09:10.281Z,6.15
2022-10-25T17:11:38.183Z,5.77
2022-10-25T17:14:06.491Z,5.73
2022-10-25T17:16:35.682Z,6.50
2022-10-25T17:19:04.102Z,6.30
2022-10-25T17:21:33.441Z,6.77
2022-10-25T17:24:04.013Z,6.23
2022-10-25T17:26:31.598Z,5.80
2022-10-25T17:29:01.028Z,6.77
2022-10-25T17:31:28.993Z,7.50
2022-10-25T17:33:57.108Z,6.53
2022-10-25T17:36:26.085Z,5.63
2022-10-25T17:38:54.520Z,6.27
2022-10-25T17:41:22.251Z,7.10
2022-10-25T17:43:52.025Z,6.17
2022-10-25T17:46:26.033Z,6.03
2022-10-25T17:48:55.945Z,6.00
2022-10-25T17:51:23.892Z,6.07
2022-10-25T17:53:56.074Z,6.47
2022-10-25T17:56:25.674Z,6.57
2022-10-25T17:58:54.610Z,6.40
2022-10-25T18:01:25.592Z,7.03
2022-10-25T18:03:54.914Z,6.33
2022-10-25T18:06:25.166Z,6.17
2022-10-25T18:08:54.520Z,5.30
2022-10-25T18:11:23.984Z,5.40
2022-10-25T18:13:56.690Z,5.60
2022-10-25T18:16:27.888Z,4.97
2022-10-25T18:18:57.143Z,5.33
2022-10-25T18:21:25.143Z,7.07
2022-10-25T18:23:57.832Z,5.93
2022-10-25T18:26:25.873Z,5.50
2022-10-25T18:28:53.852Z,5.27
2022-10-25T18:31:21.623Z,5.70
2022-10-25T18:33:49.277Z,6.27
2022-10-25T18:36:19.576Z,6.73
2022-10-25T18:38:49.779Z,6.73
2022-10-25T18:41:28.444Z,5.57
2022-10-25T18:43:57.176Z,6.63
2022-10-25T18:46:27.513Z,7.20
2022-10-25T18:48:57.145Z,6.17
2022-10-25T18:51:26.959Z,6.17
2022-10-25T18:53:59.593Z,6.30
2022-10-25T18:56:28.781Z,6.87
2022-10-25T18:58:58.271Z,6.20
2022-10-25T19:01:32.891Z,7.60
2022-10-25T19:04:03.777Z,5.90
2022-10-25T19:06:32.698Z,6.27
2022-10-25T19:09:05.392Z,6.97
2022-10-25T19:11:34.693Z,6.70
2022-10-25T19:14:04.105Z,6.77
2022-10-25T19:16:32.025Z,6.93
2022-10-25T19:19:07.359Z,6.93
2022-10-25T19:21:36.343Z,5.97
2022-10-25T19:24:04.867Z,6.37
2022-10-25T19:26:32.924Z,6.30
2022-10-25T19:29:01.221Z,7.50
2022-10-25T19:31:29.733Z,6.93
2022-10-25T19:34:04.068Z,6.90
2022-10-25T19:36:32.417Z,6.50
2022-10-25T19:39:01.515Z,7.13
2022-10-25T19:41:33.867Z,7.07
2022-10-25T19:44:01.691Z,6.60
2022-10-25T19:46:29.358Z,7.10
2022-10-25T19:49:00.321Z,6.50
2022-10-25T19:51:28.790Z,7.13
2022-10-25T19:53:56.388Z,6.13
2022-10-25T19:56:24.316Z,6.80
2022-10-25T19:58:52.010Z,7.83
2022-10-25T20:01:23.697Z,6.67
2022-10-25T20:03:54.802Z,6.67
2022-10-25T20:06:25.954Z,6.53
2022-10-25T20:08:55.221Z,7.57
2022-10-25T20:11:24.126Z,6.90
2022-10-25T20:13:55.996Z,7.80
2022-10-25T20:16:24.241Z,7.57
2022-10-25T20:18:51.967Z,7.60
2022-10-25T20:21:27.685Z,6.57
2022-10-25T20:23:58.040Z,7.50
2022-10-25T20:26:28.340Z,7.20
2022-10-25T20:28:58.777Z,7.50
2022-10-25T20:31:28.759Z,6.73
2022-10-25T20:33:57.198Z,7.63
2022-10-25T20:36:25.602Z,7.70
2022-10-25T20:38:53.357Z,6.67
2022-10-25T20:41:23.409Z,7.30
2022-10-25T20:43:56.738Z,7.10
2022-10-25T20:46:26.369Z,6.63
2022-10-25T20:48:54.206Z,7.27
2022-10-25T20:59:20.764Z,7.73
2022-10-25T21:02:52.741Z,7.17
2022-10-25T21:06:57.068Z,6.75
2022-10-25T21:10:58.279Z,6.70
2022-10-25T21:23:20.880Z,8.00
2022-10-25T21:26:00.785Z,7.83
2022-10-25T21:28:32.585Z,8.90
2022-10-25T21:31:02.101Z,8.00
2022-10-25T21:33:29.692Z,8.37
2022-10-25T21:36:11.717Z,10.13
2022-10-25T21:38:39.588Z,8.43
2022-10-25T21:41:12.789Z,8.30
2022-10-25T21:43:46.001Z,9.07
2022-10-25T21:46:16.770Z,8.20
2022-10-25T21:48:47.289Z,9.07
2022-10-25T21:51:15.125Z,8.30
2022-10-25T21:53:42.683Z,9.07
2022-10-25T21:56:15.219Z,8.13
2022-10-25T21:58:45.096Z,7.57
2022-10-25T22:01:18.519Z,8.40
2022-10-25T22:03:46.198Z,8.07
2022-10-25T22:06:17.918Z,8.20
2022-10-25T22:08:46.145Z,7.40
2022-10-25T22:11:19.468Z,9.50
2022-10-25T22:13:47.752Z,7.77
2022-10-25T22:16:17.986Z,7.80
2022-10-25T22:18:51.616Z,8.47
2022-10-25T22:21:19.504Z,7.20
2022-10-25T22:23:47.264Z,6.77
2022-10-25T22:26:16.876Z,7.57
2022-10-25T22:28:44.535Z,7.50
2022-10-25T22:31:17.473Z,7.17
2022-10-25T22:33:45.476Z,7.30
2022-10-25T22:36:16.535Z,6.23
2022-10-25T22:38:45.279Z,7.07
2022-10-25T22:41:15.635Z,6.03
2022-10-25T22:43:43.838Z,6.90
2022-10-25T22:46:14.513Z,7.10
2022-10-25T22:48:43.785Z,7.13
2022-10-25T22:51:11.977Z,6.13
2022-10-25T22:53:40.382Z,6.27
2022-10-25T22:56:15.510Z,6.03
2022-10-25T22:58:49.491Z,6.10
2022-10-25T23:01:25.764Z,6.27
2022-10-25T23:03:55.466Z,6.40
2022-10-25T23:06:28.880Z,5.83
2022-10-25T23:08:58.321Z,6.00
2022-10-25T23:11:31.172Z,5.80
2022-10-25T23:13:59.513Z,6.47
2022-10-25T23:16:28.043Z,6.53
2022-10-25T23:18:56.226Z,6.00
2022-10-25T23:21:25.887Z,6.30
2022-10-25T23:23:54.325Z,6.20
2022-10-25T23:26:23.092Z,6.27
2022-10-25T23:28:51.097Z,5.57
2022-10-25T23:31:18.715Z,5.60
2022-10-25T23:33:50.948Z,6.03
2022-10-25T23:36:20.262Z,5.87
2022-10-25T23:38:49.487Z,5.93
2022-10-25T23:41:18.337Z,7.00
2022-10-25T23:43:46.018Z,6.57
2022-10-25T23:46:14.304Z,5.80
2022-10-25T23:48:42.123Z,5.30
2022-10-25T23:51:15.541Z,6.17
2022-10-25T23:53:43.662Z,5.40
2022-10-25T23:56:12.946Z,5.77
2022-10-25T23:58:40.812Z,6.43
